createdAt,value
2019-02-20T00:02:07.353Z,1.13
2019-02-20T00:04:36.150Z,0.99
2019-02-20T00:07:04.951Z,1.06
2019-02-20T00:09:33.824Z,1.10
2019-02-20T00:12:02.799Z,1.06
2019-02-20T00:14:31.748Z,0.97
2019-02-20T00:17:00.542Z,0.99
2019-02-20T00:19:29.477Z,0.96
2019-02-20T00:21:58.265Z,0.73
2019-02-20T00:24:27.115Z,0.66
2019-02-20T00:26:55.900Z,0.45
2019-02-20T00:29:24.705Z,0.30
2019-02-20T00:31:53.582Z,0.24
2019-02-20T00:34:22.360Z,0.17
2019-02-20T00:36:51.167Z,0.21
2019-02-20T00:39:19.977Z,0.18
2019-02-20T00:41:48.781Z,0.19
2019-02-20T00:44:24.702Z,0.32
2019-02-20T00:47:14.613Z,0.47
2019-02-20T00:49:46.570Z,0.61
2019-02-20T00:52:25.415Z,0.75
2019-02-20T00:54:54.373Z,0.72
2019-02-20T00:57:23.266Z,0.81
2019-02-20T00:59:52.065Z,0.81
2019-02-20T01:02:20.937Z,0.65
2019-02-20T01:04:49.746Z,0.51
2019-02-20T01:07:18.547Z,0.61
2019-02-20T01:09:47.385Z,0.59
2019-02-20T01:12:16.194Z,0.57
2019-02-20T01:14:45.048Z,0.60
2019-02-20T01:17:13.913Z,0.58
2019-02-20T01:19:42.793Z,0.43
2019-02-20T01:22:11.597Z,0.26
2019-02-20T01:24:40.407Z,0.15
2019-02-20T01:27:09.274Z,-0.01
2019-02-20T01:29:38.189Z,-0.05
2019-02-20T01:32:06.973Z,-0.18
2019-02-20T01:34:35.825Z,-0.09
2019-02-20T01:37:04.704Z,-0.07
2019-02-20T01:39:34.635Z,-0.16
2019-02-20T01:42:03.428Z,-0.15
2019-02-20T01:44:32.245Z,-0.20
2019-02-20T01:47:01.063Z,-0.25
2019-02-20T01:49:30.179Z,-0.24
2019-02-20T01:51:58.967Z,-0.22
2019-02-20T01:54:27.859Z,-0.34
2019-02-20T01:56:57.266Z,-0.38
2019-02-20T01:59:26.130Z,-0.37
2019-02-20T02:01:54.921Z,-0.35
2019-02-20T02:04:23.749Z,-0.46
2019-02-20T02:06:52.641Z,-0.46
2019-02-20T02:09:21.527Z,-0.50
2019-02-20T02:11:50.400Z,-0.60
2019-02-20T02:14:19.201Z,-0.62
2019-02-20T02:16:48.007Z,-0.67
2019-02-20T02:19:16.867Z,-0.66
2019-02-20T02:21:45.666Z,-0.67
2019-02-20T02:24:14.545Z,-0.71
2019-02-20T02:26:43.439Z,-0.73
2019-02-20T02:29:12.247Z,-0.70
2019-02-20T02:31:41.134Z,-0.72
2019-02-20T02:34:10.004Z,-0.65
2019-02-20T02:36:38.881Z,-0.58
2019-02-20T02:39:07.823Z,-0.62
2019-02-20T02:41:36.717Z,-0.71
2019-02-20T02:44:05.771Z,-0.73
2019-02-20T02:46:34.662Z,-0.72
2019-02-20T02:49:03.449Z,-0.69
2019-02-20T02:51:32.438Z,-0.61
2019-02-20T02:54:01.253Z,-0.51
2019-02-20T02:56:30.059Z,-0.64
2019-02-20T02:58:58.835Z,-0.64
2019-02-20T03:01:27.625Z,-0.65
2019-02-20T03:03:56.424Z,-0.66
2019-02-20T03:06:25.301Z,-0.72
2019-02-20T03:08:54.100Z,-0.67
2019-02-20T03:11:23.002Z,-0.70
2019-02-20T03:13:51.788Z,-0.81
2019-02-20T03:16:20.583Z,-0.97
2019-02-20T03:18:49.446Z,-1.05
2019-02-20T03:21:18.366Z,-1.10
2019-02-20T03:23:47.213Z,-1.08
2019-02-20T03:26:16.069Z,-1.07
2019-02-20T03:28:44.863Z,-1.07
2019-02-20T03:31:13.673Z,-1.14
2019-02-20T03:33:42.665Z,-1.21
2019-02-20T03:36:11.648Z,-1.00
2019-02-20T03:38:40.508Z,-0.92
2019-02-20T03:41:09.390Z,-0.96
2019-02-20T03:43:38.246Z,-1.00
2019-02-20T03:46:07.124Z,-0.95
2019-02-20T03:48:35.952Z,-0.96
2019-02-20T03:51:04.842Z,-1.08
2019-02-20T03:53:33.631Z,-1.10
2019-02-20T03:56:02.559Z,-1.04
2019-02-20T03:58:33.208Z,-0.93
2019-02-20T04:01:02.116Z,-0.88
2019-02-20T04:03:30.903Z,-1.22
2019-02-20T04:05:59.709Z,-1.46
2019-02-20T04:08:28.491Z,-1.36
2019-02-20T04:10:57.289Z,-1.34
2019-02-20T04:13:26.087Z,-1.43
2019-02-20T04:15:54.948Z,-1.43
2019-02-20T04:18:23.850Z,-1.47
2019-02-20T04:20:52.678Z,-1.44
2019-02-20T04:23:21.551Z,-1.33
2019-02-20T04:25:50.354Z,-1.45
2019-02-20T04:28:19.188Z,-1.52
2019-02-20T04:30:47.960Z,-1.36
2019-02-20T04:33:16.751Z,-1.13
2019-02-20T04:35:45.564Z,-1.17
2019-02-20T04:38:14.361Z,-1.21
2019-02-20T04:40:43.153Z,-1.42
2019-02-20T04:43:11.956Z,-1.45
2019-02-20T04:45:40.764Z,-1.37
2019-02-20T04:48:09.572Z,-1.47
2019-02-20T04:50:38.450Z,-1.48
2019-02-20T04:53:07.258Z,-1.39
2019-02-20T04:55:36.069Z,-1.39
2019-02-20T04:58:33.421Z,-1.57
2019-02-20T05:01:02.227Z,-1.61
2019-02-20T05:03:31.101Z,-1.65
2019-02-20T05:05:59.993Z,-1.68
2019-02-20T05:08:28.803Z,-1.61
2019-02-20T05:10:57.607Z,-1.61
2019-02-20T05:13:26.420Z,-1.51
2019-02-20T05:15:55.227Z,-1.50
2019-02-20T05:18:24.042Z,-1.57
2019-02-20T05:20:52.888Z,-1.58
2019-02-20T05:23:21.700Z,-1.50
2019-02-20T05:25:50.578Z,-1.50
2019-02-20T05:28:19.377Z,-1.53
2019-02-20T05:30:48.227Z,-1.50
2019-02-20T05:33:17.051Z,-1.43
2019-02-20T05:35:45.860Z,-1.38
2019-02-20T05:38:14.710Z,-1.53
2019-02-20T05:40:43.471Z,-1.55
2019-02-20T05:43:12.310Z,-1.53
2019-02-20T05:45:41.181Z,-1.59
2019-02-20T05:48:09.983Z,-1.52
2019-02-20T05:50:39.670Z,-1.58
2019-02-20T05:53:08.462Z,-1.64
2019-02-20T05:55:37.261Z,-1.58
2019-02-20T05:58:06.073Z,-1.55
2019-02-20T06:00:34.875Z,-1.50
2019-02-20T06:03:05.040Z,-1.55
2019-02-20T06:05:34.157Z,-1.48
2019-02-20T06:08:02.950Z,-1.51
2019-02-20T06:10:31.946Z,-1.62
2019-02-20T06:13:00.774Z,-1.49
2019-02-20T06:15:29.559Z,-1.40
2019-02-20T06:17:58.424Z,-1.34
2019-02-20T06:20:27.292Z,-1.42
2019-02-20T06:22:56.092Z,-1.31
2019-02-20T06:25:24.888Z,-1.21
2019-02-20T06:27:53.731Z,-1.22
2019-02-20T06:30:22.522Z,-1.21
2019-02-20T06:32:51.352Z,-1.18
2019-02-20T06:35:20.252Z,-1.07
2019-02-20T06:37:49.122Z,-1.10
2019-02-20T06:40:18.015Z,-1.09
2019-02-20T06:42:46.816Z,-0.99
2019-02-20T06:45:15.630Z,-0.96
2019-02-20T06:47:44.541Z,-0.78
2019-02-20T06:50:13.547Z,-0.72
2019-02-20T06:52:42.488Z,-0.68
2019-02-20T06:55:12.543Z,-0.81
2019-02-20T06:57:42.435Z,-0.82
2019-02-20T07:00:12.031Z,-0.85
2019-02-20T07:02:40.861Z,-0.82
2019-02-20T07:05:50.362Z,-0.83
2019-02-20T07:09:02.344Z,-0.82
2019-02-20T07:11:54.729Z,-0.74
2019-02-20T07:14:59.126Z,-0.63
2019-02-20T07:18:21.146Z,-0.54
2019-02-20T07:21:22.488Z,-0.36
2019-02-20T07:24:27.202Z,0.19
2019-02-20T07:27:11.182Z,0.37
2019-02-20T07:30:01.035Z,0.54
2019-02-20T07:32:30.022Z,0.69
2019-02-20T07:34:58.941Z,0.78
2019-02-20T07:37:27.759Z,0.93
2019-02-20T07:39:57.346Z,1.10
2019-02-20T07:42:26.317Z,1.25
2019-02-20T07:44:55.135Z,1.15
2019-02-20T07:47:23.935Z,1.37
2019-02-20T07:49:52.816Z,1.56
2019-02-20T07:52:21.648Z,1.31
2019-02-20T07:54:50.583Z,1.00
2019-02-20T07:57:19.363Z,0.91
2019-02-20T07:59:48.313Z,0.98
2019-02-20T08:02:17.090Z,0.97
2019-02-20T08:04:46.060Z,0.88
2019-02-20T08:07:15.430Z,0.93
2019-02-20T08:09:44.413Z,0.97
2019-02-20T08:12:13.309Z,1.14
2019-02-20T08:14:42.110Z,1.29
2019-02-20T08:17:11.042Z,1.43
2019-02-20T08:19:39.823Z,1.44
2019-02-20T08:22:08.711Z,1.46
2019-02-20T08:24:37.573Z,1.58
2019-02-20T08:27:06.526Z,1.71
2019-02-20T08:29:35.322Z,1.73
2019-02-20T08:32:04.215Z,1.83
2019-02-20T08:34:33.042Z,1.91
2019-02-20T08:37:01.867Z,2.03
2019-02-20T08:39:32.043Z,2.15
2019-02-20T08:42:00.823Z,2.34
2019-02-20T08:44:29.700Z,2.50
2019-02-20T08:46:58.509Z,2.66
2019-02-20T08:49:27.303Z,2.79
2019-02-20T08:51:56.202Z,2.91
2019-02-20T08:54:25.075Z,2.92
2019-02-20T08:56:53.874Z,2.97
2019-02-20T08:59:22.667Z,2.97
2019-02-20T09:01:51.549Z,3.11
2019-02-20T09:04:20.480Z,3.22
2019-02-20T09:06:49.282Z,3.39
2019-02-20T09:09:18.135Z,3.59
2019-02-20T09:11:47.511Z,3.78
2019-02-20T09:14:16.372Z,3.88
2019-02-20T09:16:45.216Z,3.94
2019-02-20T09:19:14.005Z,4.03
2019-02-20T09:21:42.800Z,4.07
2019-02-20T09:24:11.584Z,4.14
2019-02-20T09:26:40.386Z,4.25
2019-02-20T09:29:09.285Z,4.27
2019-02-20T09:31:38.125Z,4.39
2019-02-20T09:34:06.921Z,4.60
2019-02-20T09:36:35.735Z,4.82
2019-02-20T09:39:36.793Z,4.90
2019-02-20T09:42:10.375Z,5.10
2019-02-20T09:44:49.305Z,5.30
2019-02-20T09:47:19.174Z,5.48
2019-02-20T09:49:48.445Z,5.55
2019-02-20T09:52:17.274Z,5.76
2019-02-20T09:54:46.440Z,5.89
2019-02-20T09:57:15.314Z,6.06
2019-02-20T09:59:44.092Z,6.20
2019-02-20T10:02:12.884Z,6.35
2019-02-20T10:04:41.663Z,6.55
2019-02-20T10:07:10.745Z,6.78
2019-02-20T10:09:39.542Z,6.80
2019-02-20T10:12:08.432Z,6.88
2019-02-20T10:14:37.235Z,7.05
2019-02-20T10:17:06.143Z,7.23
2019-02-20T10:19:34.926Z,7.47
2019-02-20T10:22:03.703Z,7.59
2019-02-20T10:24:32.563Z,7.59
2019-02-20T10:27:01.345Z,7.54
2019-02-20T10:29:30.143Z,7.74
2019-02-20T10:31:58.930Z,7.91
2019-02-20T10:34:27.721Z,7.93
2019-02-20T10:36:56.506Z,7.98
2019-02-20T10:39:25.334Z,8.16
2019-02-20T10:41:54.108Z,8.13
2019-02-20T10:44:22.904Z,8.37
2019-02-20T10:46:51.697Z,8.74
2019-02-20T10:49:20.480Z,9.08
2019-02-20T10:51:49.908Z,9.11
2019-02-20T10:54:18.695Z,9.33
2019-02-20T10:56:47.470Z,9.49
2019-02-20T10:59:16.536Z,9.49
2019-02-20T11:01:45.440Z,9.23
2019-02-20T11:04:14.307Z,9.32
2019-02-20T11:06:43.109Z,9.49
2019-02-20T11:09:12.079Z,9.65
2019-02-20T11:11:40.850Z,9.79
2019-02-20T11:14:09.661Z,9.97
2019-02-20T11:16:38.430Z,10.03
2019-02-20T11:19:07.295Z,10.12
2019-02-20T11:21:36.085Z,9.83
2019-02-20T11:24:05.015Z,9.89
2019-02-20T11:26:43.273Z,9.81
2019-02-20T11:29:04.468Z,10.06
2019-02-20T11:31:33.321Z,10.27
2019-02-20T11:34:02.892Z,10.53
2019-02-20T11:36:31.758Z,10.85
2019-02-20T11:39:00.632Z,10.75
2019-02-20T11:41:29.478Z,10.98
2019-02-20T11:43:58.262Z,10.96
2019-02-20T11:46:27.119Z,10.89
2019-02-20T11:48:55.938Z,11.05
2019-02-20T11:51:24.714Z,11.21
2019-02-20T11:53:53.600Z,11.15
2019-02-20T11:56:26.566Z,11.46
2019-02-20T11:58:52.920Z,11.59
2019-02-20T12:01:21.748Z,11.88
2019-02-20T12:03:50.623Z,12.06
2019-02-20T12:06:19.772Z,12.18
2019-02-20T12:08:48.605Z,12.03
2019-02-20T12:11:18.586Z,12.21
2019-02-20T12:13:47.489Z,12.21
2019-02-20T12:16:16.404Z,12.41
2019-02-20T12:18:48.414Z,12.06
2019-02-20T12:21:18.075Z,11.98
2019-02-20T12:23:47.051Z,12.11
2019-02-20T12:26:16.026Z,11.72
2019-02-20T12:28:44.808Z,11.93
2019-02-20T12:31:13.666Z,11.91
2019-02-20T12:33:42.444Z,11.99
2019-02-20T12:36:11.301Z,11.99
2019-02-20T12:38:40.081Z,11.68
2019-02-20T12:41:08.878Z,11.92
2019-02-20T12:43:37.662Z,12.11
2019-02-20T12:46:06.601Z,11.99
2019-02-20T12:48:35.406Z,11.55
2019-02-20T12:51:04.350Z,11.68
2019-02-20T12:53:33.138Z,11.70
2019-02-20T12:56:09.673Z,11.68
2019-02-20T12:58:32.457Z,11.78
2019-02-20T13:01:01.258Z,11.70
2019-02-20T13:03:30.063Z,11.53
2019-02-20T13:05:58.923Z,11.57
2019-02-20T13:08:28.099Z,11.56
2019-02-20T13:10:57.276Z,11.65
2019-02-20T13:13:26.402Z,11.55
2019-02-20T13:15:55.584Z,11.75
2019-02-20T13:18:24.374Z,11.70
2019-02-20T13:20:54.195Z,11.39
2019-02-20T13:23:23.093Z,11.48
2019-02-20T13:25:51.977Z,11.66
2019-02-20T13:28:23.238Z,11.70
2019-02-20T13:30:52.019Z,11.63
2019-02-20T13:33:20.803Z,11.66
2019-02-20T13:35:49.592Z,11.75
2019-02-20T13:38:18.374Z,11.96
2019-02-20T13:40:47.175Z,11.91
2019-02-20T13:43:15.954Z,11.88
2019-02-20T13:45:45.235Z,11.94
2019-02-20T13:48:14.071Z,12.06
2019-02-20T13:50:42.859Z,12.04
2019-02-20T13:53:11.709Z,11.85
2019-02-20T13:55:42.376Z,12.17
2019-02-20T13:58:11.736Z,12.25
2019-02-20T14:00:40.652Z,12.11
2019-02-20T14:03:09.431Z,11.59
2019-02-20T14:05:38.227Z,11.82
2019-02-20T14:08:07.069Z,12.03
2019-02-20T14:10:35.877Z,12.02
2019-02-20T14:13:04.658Z,11.99
2019-02-20T14:15:33.453Z,11.99
2019-02-20T14:18:02.517Z,12.09
2019-02-20T14:20:31.454Z,12.12
2019-02-20T14:23:00.345Z,12.16
2019-02-20T14:25:29.359Z,12.04
2019-02-20T14:27:58.208Z,12.08
2019-02-20T14:30:27.088Z,12.20
2019-02-20T14:32:56.304Z,12.16
2019-02-20T14:35:25.094Z,12.20
2019-02-20T14:37:53.882Z,12.33
2019-02-20T14:40:22.686Z,12.00
2019-02-20T14:42:53.289Z,12.03
2019-02-20T14:45:25.206Z,12.10
2019-02-20T14:47:54.007Z,11.81
2019-02-20T14:50:23.052Z,11.77
2019-02-20T14:52:51.873Z,11.67
2019-02-20T14:55:20.714Z,11.71
2019-02-20T14:57:51.038Z,11.61
2019-02-20T15:00:20.351Z,11.47
2019-02-20T15:02:49.116Z,11.44
2019-02-20T15:05:18.423Z,11.52
2019-02-20T15:07:47.205Z,11.56
2019-02-20T15:10:16.058Z,11.49
2019-02-20T15:12:46.638Z,11.53
2019-02-20T15:15:15.690Z,11.44
2019-02-20T15:17:44.565Z,11.40
2019-02-20T15:20:13.607Z,11.45
2019-02-20T15:22:42.468Z,11.55
2019-02-20T15:25:11.410Z,11.67
2019-02-20T15:27:40.279Z,11.53
2019-02-20T15:30:12.367Z,11.56
2019-02-20T15:32:41.612Z,11.50
2019-02-20T15:35:10.660Z,11.30
2019-02-20T15:37:39.602Z,11.10
2019-02-20T15:40:09.088Z,11.16
2019-02-20T15:42:37.970Z,11.16
2019-02-20T15:45:07.134Z,11.04
2019-02-20T15:47:35.965Z,10.89
2019-02-20T15:50:05.862Z,10.99
2019-02-20T15:52:35.115Z,10.91
2019-02-20T15:55:04.488Z,10.91
2019-02-20T15:57:38.085Z,10.93
2019-02-20T16:00:04.470Z,10.82
2019-02-20T16:02:33.418Z,10.72
2019-02-20T16:05:02.279Z,10.70
2019-02-20T16:07:31.363Z,10.54
2019-02-20T16:10:00.209Z,10.55
2019-02-20T16:12:29.856Z,10.47
2019-02-20T16:14:58.651Z,10.33
2019-02-20T16:17:27.507Z,10.21
2019-02-20T16:19:56.460Z,10.07
2019-02-20T16:22:25.256Z,10.04
2019-02-20T16:24:54.394Z,10.05
2019-02-20T16:27:23.266Z,9.99
2019-02-20T16:29:52.200Z,9.95
2019-02-20T16:32:20.984Z,9.89
2019-02-20T16:34:49.873Z,9.77
2019-02-20T16:37:18.734Z,9.71
2019-02-20T16:39:47.890Z,9.65
2019-02-20T16:42:16.680Z,9.61
2019-02-20T16:44:45.780Z,9.39
2019-02-20T16:47:14.650Z,9.39
2019-02-20T16:49:43.430Z,9.44
2019-02-20T16:52:12.397Z,9.47
2019-02-20T16:54:41.312Z,9.44
2019-02-20T16:57:10.364Z,9.33
2019-02-20T16:59:39.153Z,9.11
2019-02-20T17:02:08.998Z,9.13
2019-02-20T17:04:39.505Z,9.16
2019-02-20T17:07:08.466Z,9.12
2019-02-20T17:09:37.287Z,9.04
2019-02-20T17:12:06.404Z,9.01
2019-02-20T17:14:36.547Z,8.99
2019-02-20T17:17:05.597Z,9.00
2019-02-20T17:19:34.370Z,9.07
2019-02-20T17:22:03.404Z,9.10
2019-02-20T17:24:33.422Z,9.04
2019-02-20T17:27:02.819Z,8.92
2019-02-20T17:29:31.741Z,8.79
2019-02-20T17:32:00.537Z,8.78
2019-02-20T17:34:29.321Z,8.69
2019-02-20T17:36:58.279Z,8.53
2019-02-20T17:39:27.216Z,8.38
2019-02-20T17:41:56.008Z,8.29
2019-02-20T17:44:24.803Z,8.19
2019-02-20T17:46:53.588Z,8.12
2019-02-20T17:49:22.457Z,8.11
2019-02-20T17:51:51.312Z,8.04
2019-02-20T17:54:20.177Z,8.02
2019-02-20T17:56:49.030Z,7.94
2019-02-20T17:59:17.829Z,7.84
2019-02-20T18:01:46.790Z,7.80
2019-02-20T18:04:15.629Z,7.76
2019-02-20T18:06:44.408Z,7.73
2019-02-20T18:09:13.683Z,7.70
2019-02-20T18:11:42.542Z,7.70
2019-02-20T18:14:11.415Z,7.67
2019-02-20T18:16:40.272Z,7.58
2019-02-20T18:19:09.087Z,7.52
2019-02-20T18:21:37.954Z,7.46
2019-02-20T18:24:06.893Z,7.41
2019-02-20T18:26:35.688Z,7.16
2019-02-20T18:29:04.987Z,7.18
2019-02-20T18:31:33.845Z,7.20
2019-02-20T18:34:03.002Z,7.20
2019-02-20T18:36:31.794Z,7.15
2019-02-20T18:39:00.590Z,7.11
2019-02-20T18:41:29.372Z,7.02
2019-02-20T18:43:58.189Z,6.92
2019-02-20T18:46:26.977Z,6.86
2019-02-20T18:48:55.840Z,6.80
2019-02-20T18:51:24.699Z,6.72
2019-02-20T18:53:53.577Z,6.66
2019-02-20T18:56:22.461Z,6.62
2019-02-20T18:58:51.226Z,6.54
2019-02-20T19:01:20.026Z,6.45
2019-02-20T19:03:48.829Z,6.34
2019-02-20T19:06:17.767Z,6.25
2019-02-20T19:08:52.132Z,6.17
2019-02-20T19:11:34.202Z,6.08
2019-02-20T19:14:20.507Z,5.96
2019-02-20T19:17:19.664Z,5.81
2019-02-20T19:20:35.026Z,5.73
2019-02-20T19:23:39.769Z,5.64
2019-02-20T19:26:38.645Z,5.57
2019-02-20T19:29:41.017Z,5.63
2019-02-20T19:32:46.811Z,5.56
2019-02-20T19:35:39.995Z,5.54
2019-02-20T19:38:56.099Z,5.45
2019-02-20T19:41:41.698Z,5.34
2019-02-20T19:44:31.872Z,5.36
2019-02-20T19:47:29.594Z,5.25
2019-02-20T19:50:46.188Z,5.25
2019-02-20T19:53:51.541Z,5.23
2019-02-20T19:56:34.625Z,5.06
2019-02-20T19:59:32.735Z,5.00
2019-02-20T20:02:40.611Z,4.91
2019-02-20T20:06:08.934Z,4.83
2019-02-20T20:08:46.424Z,4.73
2019-02-20T20:11:29.224Z,4.60
2019-02-20T20:14:36.426Z,4.56
2019-02-20T20:17:36.328Z,4.42
2019-02-20T20:20:35.155Z,4.34
2019-02-20T20:23:11.790Z,4.29
2019-02-20T20:26:00.168Z,4.26
2019-02-20T20:28:47.453Z,4.25
2019-02-20T20:31:42.297Z,4.27
2019-02-20T20:35:04.635Z,4.24
2019-02-20T20:37:53.948Z,4.20
2019-02-20T20:40:51.915Z,4.10
2019-02-20T20:43:46.421Z,4.09
2019-02-20T20:46:40.962Z,4.08
2019-02-20T20:50:12.859Z,4.12
2019-02-20T20:53:10.799Z,4.12
2019-02-20T20:56:20.975Z,4.07
2019-02-20T20:59:26.034Z,3.82
2019-02-20T21:02:17.263Z,3.75
2019-02-20T21:05:08.481Z,3.55
2019-02-20T21:08:22.023Z,3.55
2019-02-20T21:11:21.556Z,3.63
2019-02-20T21:14:24.248Z,3.64
2019-02-20T21:17:25.538Z,3.61
2019-02-20T21:20:53.820Z,3.64
2019-02-20T21:24:03.471Z,3.59
2019-02-20T21:27:00.273Z,3.49
2019-02-20T21:30:15.060Z,3.51
2019-02-20T21:33:16.539Z,3.51
2019-02-20T21:36:15.410Z,3.43
2019-02-20T21:39:30.595Z,3.42
2019-02-20T21:42:31.453Z,3.35
2019-02-20T21:45:17.475Z,3.27
2019-02-20T21:48:15.325Z,3.21
2019-02-20T21:50:50.816Z,3.09
2019-02-20T21:53:49.698Z,3.10
2019-02-20T21:56:27.018Z,3.11
2019-02-20T22:03:11.249Z,3.11
2019-02-20T22:06:09.803Z,3.02
2019-02-20T22:09:20.297Z,3.06
2019-02-20T22:12:50.518Z,2.98
2019-02-20T22:15:49.920Z,3.02
2019-02-20T22:19:03.089Z,3.06
2019-02-20T22:22:19.634Z,3.05
2019-02-20T22:25:31.941Z,2.99
2019-02-20T22:28:24.106Z,2.97
2019-02-20T22:31:14.273Z,2.86
2019-02-20T22:34:05.021Z,2.85
2019-02-20T22:37:04.410Z,2.91
2019-02-20T22:40:20.046Z,2.83
2019-02-20T22:43:45.437Z,2.82
2019-02-20T22:46:42.550Z,2.64
2019-02-20T22:49:23.505Z,2.63
2019-02-20T22:52:23.148Z,2.57
2019-02-20T22:55:16.529Z,2.55
2019-02-20T22:58:02.324Z,2.54
2019-02-20T23:01:07.097Z,2.60
2019-02-20T23:04:09.598Z,2.55
2019-02-20T23:07:00.921Z,2.44
2019-02-20T23:10:01.639Z,2.51
2019-02-20T23:12:44.869Z,2.56
2019-02-20T23:15:13.753Z,2.55
2019-02-20T23:17:42.645Z,2.56
2019-02-20T23:20:11.506Z,2.51
2019-02-20T23:22:40.304Z,2.46
2019-02-20T23:25:09.193Z,2.43
2019-02-20T23:27:38.047Z,2.37
2019-02-20T23:30:12.870Z,2.23
2019-02-20T23:32:38.895Z,2.10
2019-02-20T23:35:08.265Z,2.02
2019-02-20T23:37:37.124Z,1.99
2019-02-20T23:40:06.714Z,1.84
2019-02-20T23:42:35.668Z,1.80
2019-02-20T23:45:05.100Z,1.75
2019-02-20T23:47:33.888Z,1.73
2019-02-20T23:50:02.685Z,1.74
2019-02-20T23:52:31.549Z,1.60
2019-02-20T23:55:00.502Z,1.60
2019-02-20T23:57:29.428Z,1.55
2019-02-20T23:59:58.246Z,1.48
